Time;durP1;ratioP1;P1;durP2;ratioP2;P2;SDS_P1;SDS_P2;PMS_P1;PMS_P2;Temp;Humidity;BMP_temperature;BMP_pressure;BME280_temperature;BME280_humidity;BME280_pressure;Samples;Min_cycle;Max_cycle;Signal;HPM_P1;HPM_P2
2023/04/21 00:00:56;;;;;;;5.17;4.03;;;;;;;3.84;100.00;98240.34;5032050;28;20334;-60
2023/04/21 00:03:24;;;;;;;6.63;4.03;;;;;;;3.82;99.40;98237.88;5032776;28;20238;-60
2023/04/21 00:05:51;;;;;;;6.30;4.07;;;;;;;3.87;99.96;98234.94;5033143;28;20227;-62
2023/04/21 00:08:19;;;;;;;5.67;4.30;;;;;;;3.97;100.00;98235.88;5027496;28;20234;-62
2023/04/21 00:10:46;;;;;;;5.97;4.43;;;;;;;4.01;99.54;98233.88;5032656;28;20241;-60
2023/04/21 00:13:13;;;;;;;5.80;3.97;;;;;;;4.03;98.55;98238.94;5029239;28;20230;-60
2023/04/21 00:15:39;;;;;;;6.63;4.00;;;;;;;4.08;99.54;98232.47;5032506;28;20236;-60
2023/04/21 00:18:06;;;;;;;6.07;4.20;;;;;;;4.06;98.26;98242.09;5033348;28;20216;-60
2023/04/21 00:20:38;;;;;;;5.20;4.10;;;;;;;4.08;98.50;98231.66;5032856;28;20231;-60
2023/04/21 00:23:05;;;;;;;5.57;4.10;;;;;;;4.05;97.39;98232.69;5031574;28;20248;-60
2023/04/21 00:25:37;;;;;;;5.10;3.90;;;;;;;4.08;97.00;98235.03;5031970;28;20227;-60
2023/04/21 00:28:03;;;;;;;8.00;4.10;;;;;;;4.09;97.71;98231.53;5032177;28;20753;-60
2023/04/21 00:30:55;;;;;;;6.07;4.43;;;;;;;4.23;96.02;98214.97;5029241;28;20281;-60
2023/04/21 00:33:21;;;;;;;6.33;4.60;;;;;;;4.25;96.16;98222.56;5032883;28;20739;-60
2023/04/21 00:35:50;;;;;;;5.87;4.50;;;;;;;4.36;95.63;98219.97;5021113;28;20639;-60
2023/04/21 00:38:16;;;;;;;6.73;4.90;;;;;;;4.31;95.11;98214.34;5011850;28;20231;-60
2023/04/21 00:40:43;;;;;;;6.23;4.53;;;;;;;4.32;94.23;98209.97;5010402;28;20220;-60
2023/04/21 00:43:11;;;;;;;6.10;4.50;;;;;;;4.35;94.53;98218.34;5007745;28;21363;-60
2023/04/21 00:45:38;;;;;;;6.50;4.53;;;;;;;4.31;94.76;98219.50;5018469;28;20215;-60
2023/04/21 00:48:05;;;;;;;9.90;4.40;;;;;;;4.29;94.59;98218.81;5032340;28;20231;-60
2023/04/21 00:50:38;;;;;;;6.30;4.20;;;;;;;4.21;93.87;98209.09;5032073;28;20269;-60
2023/04/21 00:53:08;;;;;;;6.43;4.57;;;;;;;4.25;93.80;98201.91;5012386;28;20237;-60
2023/04/21 00:55:37;;;;;;;6.63;4.77;;;;;;;4.19;94.67;98197.22;5031934;28;20235;-60
2023/04/21 00:58:04;;;;;;;6.07;4.60;;;;;;;4.18;95.27;98199.00;5007089;28;20221;-60
2023/04/21 01:00:38;;;;;;;6.43;4.40;;;;;;;4.16;94.96;98192.28;4994736;28;20314;-60
2023/04/21 01:03:06;;;;;;;6.03;4.17;;;;;;;4.25;94.06;98197.53;5013736;28;20281;-60
2023/04/21 01:05:36;;;;;;;5.73;4.53;;;;;;;4.34;93.25;98196.00;4994902;28;20727;-60
2023/04/21 01:08:04;;;;;;;7.67;4.67;;;;;;;4.33;93.56;98196.13;5010952;28;20237;-60
2023/04/21 01:10:38;;;;;;;5.70;4.17;;;;;;;4.34;92.84;98195.19;5007694;28;20273;-59
2023/04/21 01:13:05;;;;;;;6.80;4.13;;;;;;;4.24;93.60;98201.06;5027703;28;20227;-60
2023/04/21 01:15:37;;;;;;;5.33;3.97;;;;;;;4.20;93.46;98206.63;5031373;28;20661;-60
2023/04/21 01:18:04;;;;;;;5.57;4.33;;;;;;;4.18;94.44;98203.34;5025996;28;20571;-60
2023/04/21 01:20:37;;;;;;;6.57;4.47;;;;;;;4.16;94.95;98202.63;5034589;28;20310;-60
2023/04/21 01:23:07;;;;;;;5.33;4.23;;;;;;;4.13;94.11;98208.88;5030541;28;20224;-59
2023/04/21 01:25:37;;;;;;;7.40;4.67;;;;;;;4.13;94.23;98203.72;5011046;28;20230;-60
2023/04/21 01:28:04;;;;;;;6.38;4.68;;;;;;;4.15;94.43;98207.00;5015111;28;20445;-60
2023/04/21 01:30:37;;;;;;;6.53;4.37;;;;;;;4.10;95.45;98209.13;5029940;28;20667;-60
2023/04/21 01:33:03;;;;;;;6.20;4.90;;;;;;;4.04;94.83;98209.59;5012249;28;20753;-60
2023/04/21 01:35:55;;;;;;;5.93;4.17;;;;;;;4.01;95.04;98212.41;5011037;28;20278;-60
2023/04/21 01:38:23;;;;;;;5.77;4.30;;;;;;;3.98;94.86;98206.53;5017362;28;20255;-60
2023/04/21 01:40:52;;;;;;;6.00;4.37;;;;;;;3.92;95.95;98206.19;5015310;28;20231;-59
2023/04/21 01:43:23;;;;;;;8.53;4.20;;;;;;;3.92;95.39;98216.50;5016070;28;20223;-59
2023/04/21 01:45:49;;;;;;;7.63;4.13;;;;;;;3.92;95.78;98217.34;5016934;28;20225;-60
2023/04/21 01:48:16;;;;;;;5.23;3.77;;;;;;;3.88;95.09;98217.69;5028013;28;20231;-60
2023/04/21 01:50:42;;;;;;;5.67;4.20;;;;;;;3.91;95.50;98205.38;5019170;28;20223;-59
2023/04/21 01:53:10;;;;;;;7.27;4.60;;;;;;;3.92;95.29;98208.75;5010667;28;20551;-59
2023/04/21 01:55:38;;;;;;;7.47;4.43;;;;;;;3.86;96.03;98219.56;5013844;28;20242;-59
2023/04/21 01:58:08;;;;;;;6.13;4.50;;;;;;;3.79;95.66;98211.47;5013699;28;20230;-60
2023/04/21 02:00:37;;;;;;;7.03;4.37;;;;;;;3.77;97.29;98213.34;5018634;28;20240;-60
2023/04/21 02:03:05;;;;;;;5.40;3.97;;;;;;;3.77;97.59;98215.94;5033492;28;20321;-60
2023/04/21 02:05:37;;;;;;;5.37;4.00;;;;;;;3.82;97.00;98214.63;5016462;28;20312;-60
2023/04/21 02:08:08;;;;;;;7.00;4.10;;;;;;;3.79;97.72;98217.44;5018914;28;20227;-59
2023/04/21 02:10:38;;;;;;;7.37;4.30;;;;;;;3.86;97.03;98220.41;5020501;28;21136;-59
2023/04/21 02:13:04;;;;;;;5.20;4.00;;;;;;;3.87;96.45;98227.19;5013003;28;20276;-60
2023/04/21 02:15:37;;;;;;;8.33;4.10;;;;;;;3.80;96.64;98216.50;5019449;28;20255;-60
2023/04/21 02:20:54;;;;;;;6.40;4.60;;;;;;;3.74;97.96;98211.81;5030004;28;20227;-59
2023/04/21 02:23:21;;;;;;;5.53;4.40;;;;;;;3.68;98.54;98217.47;5012060;28;20227;-60
2023/04/21 02:25:49;;;;;;;4.63;3.50;;;;;;;3.57;98.19;98213.13;5005764;28;20223;-60
2023/04/21 02:28:16;;;;;;;5.10;3.70;;;;;;;3.51;97.66;98211.00;5015015;28;20227;-60
2023/04/21 02:30:42;;;;;;;5.10;3.67;;;;;;;3.39;99.06;98216.13;5034119;28;20235;-60
2023/04/21 02:33:09;;;;;;;6.40;3.87;;;;;;;3.28;98.68;98210.97;5033587;28;20296;-60
2023/04/21 02:35:37;;;;;;;6.37;3.30;;;;;;;3.14;99.29;98211.19;5012739;28;20693;-59
2023/04/21 02:38:07;;;;;;;4.87;3.23;;;;;;;3.09;100.00;98214.09;5006467;28;20276;-59
2023/04/21 02:40:37;;;;;;;4.40;3.10;;;;;;;3.03;100.00;98209.41;5018308;28;20220;-60
2023/04/21 02:43:04;;;;;;;7.23;3.47;;;;;;;2.93;100.00;98209.25;5009397;28;20325;-60
2023/04/21 02:45:37;;;;;;;5.97;3.83;;;;;;;2.94;100.00;98210.91;5015783;28;20216;-59
2023/04/21 02:48:04;;;;;;;6.13;3.33;;;;;;;2.90;100.00;98218.03;5010537;28;20630;-60
2023/04/21 02:50:55;;;;;;;4.83;3.63;;;;;;;2.77;100.00;98217.28;5012183;28;20231;-59
2023/04/21 02:53:22;;;;;;;4.53;3.10;;;;;;;2.78;100.00;98212.00;5016349;28;20302;-60
2023/04/21 02:55:49;;;;;;;4.37;3.40;;;;;;;2.73;100.00;98206.38;5011004;28;20220;-59
2023/04/21 02:58:17;;;;;;;6.60;3.43;;;;;;;2.61;100.00;98205.53;5013348;28;20229;-60
2023/04/21 03:04:11;;;;;;;4.73;3.10;;;;;;;2.45;100.00;98202.41;5813714;22;20230;-60
2023/04/21 03:06:38;;;;;;;4.83;3.30;;;;;;;2.50;100.00;98208.03;5023732;28;20236;-60
2023/04/21 03:09:05;;;;;;;4.53;3.17;;;;;;;2.36;100.00;98209.00;5042260;28;20330;-59
2023/04/21 03:11:32;;;;;;;7.67;3.47;;;;;;;2.39;100.00;98211.38;5026472;28;20216;-60
2023/04/21 03:14:00;;;;;;;4.07;2.80;;;;;;;2.36;100.00;98207.28;5042265;28;20234;-60
2023/04/21 03:16:27;;;;;;;5.67;3.57;;;;;;;2.26;100.00;98202.88;5027188;28;20240;-60
2023/04/21 03:18:53;;;;;;;5.60;2.87;;;;;;;2.20;100.00;98204.13;5041847;28;20235;-59
2023/04/21 03:21:20;;;;;;;4.97;2.87;;;;;;;2.16;100.00;98195.78;5027159;28;20240;-59
2023/04/21 03:23:46;;;;;;;5.93;3.00;;;;;;;2.22;100.00;98197.13;5045132;28;20323;-60
2023/04/21 03:26:13;;;;;;;6.17;3.03;;;;;;;2.11;100.00;98192.75;5023491;28;20227;-60
2023/04/21 03:28:40;;;;;;;4.00;3.17;;;;;;;2.00;100.00;98187.50;5044313;28;20234;-59
2023/04/21 03:31:08;;;;;;;4.40;2.73;;;;;;;2.05;100.00;98185.44;5305403;22;20365;-59
2023/04/21 03:33:34;;;;;;;4.83;2.67;;;;;;;1.98;100.00;98187.59;5047380;28;20767;-60
2023/04/21 03:36:01;;;;;;;4.33;2.63;;;;;;;1.92;100.00;98190.59;5042608;28;20235;-59
2023/04/21 03:38:29;;;;;;;4.37;3.03;;;;;;;1.90;100.00;98190.72;5043534;28;20236;-60
2023/04/21 03:40:56;;;;;;;4.67;3.07;;;;;;;1.88;100.00;98197.72;5040769;28;20250;-60
2023/04/21 03:43:23;;;;;;;4.30;3.10;;;;;;;1.88;100.00;98196.91;5043139;28;20350;-60
2023/04/21 03:45:50;;;;;;;4.50;2.90;;;;;;;1.85;100.00;98195.38;5045216;28;20253;-60
2023/04/21 03:48:20;;;;;;;6.07;2.87;;;;;;;1.79;100.00;98197.53;5041184;28;20283;-60
2023/04/21 03:50:47;;;;;;;3.73;2.50;;;;;;;1.86;100.00;98194.44;5044677;28;20238;-59
2023/04/21 03:53:13;;;;;;;4.43;2.87;;;;;;;1.89;100.00;98186.50;5041736;28;20268;-59
2023/04/21 03:55:40;;;;;;;4.97;2.50;;;;;;;1.87;100.00;98188.38;5045143;28;20292;-59
2023/04/21 03:58:06;;;;;;;9.07;2.83;;;;;;;1.77;100.00;98193.31;5041806;28;20598;-59
2023/04/21 04:00:37;;;;;;;4.10;2.63;;;;;;;1.74;100.00;98180.66;5044908;28;20238;-60
2023/04/21 04:03:03;;;;;;;3.40;2.43;;;;;;;1.76;100.00;98178.78;5041111;28;20735;-59
2023/04/21 04:05:57;;;;;;;3.03;2.23;;;;;;;1.84;100.00;98182.59;5041869;28;20229;-60
2023/04/21 04:08:23;;;;;;;5.53;2.83;;;;;;;1.74;100.00;98179.84;5044651;28;20322;-60
2023/04/21 04:10:50;;;;;;;6.17;2.70;;;;;;;1.85;100.00;98174.78;5044491;28;20246;-59
2023/04/21 04:13:17;;;;;;;2.97;2.33;;;;;;;1.77;100.00;98184.78;5041821;28;20236;-60
2023/04/21 04:15:43;;;;;;;3.20;2.23;;;;;;;1.68;100.00;98175.13;5043479;28;20239;-59
2023/04/21 04:18:10;;;;;;;4.77;2.67;;;;;;;1.69;100.00;98174.19;5041740;28;20238;-60
2023/04/21 04:20:37;;;;;;;8.90;3.20;;;;;;;1.64;100.00;98182.22;5044571;28;20218;-60
2023/04/21 04:23:05;;;;;;;9.47;5.30;;;;;;;1.56;100.00;98180.19;5041663;28;20245;-60
2023/04/21 04:25:38;;;;;;;12.50;7.17;;;;;;;1.60;100.00;98179.03;5027029;28;20227;-58
2023/04/21 04:28:06;;;;;;;5.40;3.37;;;;;;;1.57;100.00;98173.28;5041574;28;20730;-59
2023/04/21 04:30:37;;;;;;;3.53;2.53;;;;;;;1.70;100.00;98173.25;5044370;28;20702;-60
2023/04/21 04:33:04;;;;;;;4.33;2.97;;;;;;;1.56;100.00;98177.59;5041460;28;20235;-60
2023/04/21 04:35:57;;;;;;;3.63;2.80;;;;;;;1.50;100.00;98183.16;5041334;28;20313;-60
2023/04/21 04:38:25;;;;;;;3.43;2.37;;;;;;;1.52;100.00;98186.47;5044461;28;20230;-60
2023/04/21 04:40:56;;;;;;;4.27;2.50;;;;;;;1.56;100.00;98189.66;5044190;28;20709;-60
2023/04/21 04:43:24;;;;;;;4.67;2.60;;;;;;;1.50;100.00;98185.72;5039367;28;20285;-60
2023/04/21 04:45:50;;;;;;;6.10;2.43;;;;;;;1.54;100.00;98189.75;5044146;28;20283;-60
2023/04/21 04:48:17;;;;;;;4.63;2.20;;;;;;;1.58;100.00;98183.47;5042235;28;20231;-60
2023/04/21 04:50:44;;;;;;;13.03;5.17;;;;;;;1.50;100.00;98193.44;5043011;28;20578;-60
2023/04/21 04:53:10;;;;;;;4.57;3.13;;;;;;;1.56;100.00;98187.09;5040932;28;20317;-60
2023/04/21 04:55:38;;;;;;;5.20;3.97;;;;;;;1.60;100.00;98189.34;5044542;28;20238;-60
2023/04/21 04:58:05;;;;;;;7.37;4.07;;;;;;;1.61;100.00;98185.84;5040737;28;20711;-60
2023/04/21 05:00:37;;;;;;;4.13;3.10;;;;;;;1.69;100.00;98192.19;5043904;28;20230;-60
2023/04/21 05:03:04;;;;;;;3.67;1.90;;;;;;;1.76;100.00;98198.56;5041845;28;20235;-61
2023/04/21 05:05:56;;;;;;;3.57;2.20;;;;;;;1.69;100.00;98207.66;5044588;28;20245;-60
2023/04/21 05:08:22;;;;;;;4.77;2.60;;;;;;;1.62;100.00;98202.91;5048237;28;20227;-61
2023/04/21 05:10:50;;;;;;;5.33;3.10;;;;;;;1.69;100.00;98220.50;5048212;28;20301;-60
2023/04/21 05:13:17;;;;;;;8.27;5.10;;;;;;;1.66;100.00;98213.00;5025039;28;20239;-61
2023/04/21 05:15:44;;;;;;;3.90;2.90;;;;;;;1.74;100.00;98208.97;5024946;28;20230;-60
2023/04/21 05:18:10;;;;;;;3.80;2.90;;;;;;;1.71;100.00;98221.22;5025695;28;20237;-60
2023/04/21 05:20:40;;;;;;;4.40;3.10;;;;;;;1.67;100.00;98217.22;5042394;28;20242;-60
2023/04/21 05:23:07;;;;;;;4.07;2.60;;;;;;;1.71;100.00;98210.94;5044434;28;20296;-59
2023/04/21 05:25:37;;;;;;;3.37;2.57;;;;;;;1.69;100.00;98217.94;5047344;28;20255;-60
2023/04/21 05:28:05;;;;;;;2.87;2.37;;;;;;;1.68;100.00;98221.44;5044150;28;20238;-60
2023/04/21 05:30:37;;;;;;;4.53;2.53;;;;;;;1.70;100.00;98224.72;5046747;28;20302;-60
2023/04/21 05:33:03;;;;;;;3.30;2.20;;;;;;;1.79;100.00;98220.69;5044330;28;20242;-60
2023/04/21 05:35:56;;;;;;;2.60;1.97;;;;;;;1.75;100.00;98223.47;5043205;28;20235;-59
2023/04/21 05:38:22;;;;;;;3.03;2.10;;;;;;;1.76;100.00;98224.31;5047253;28;20321;-60
2023/04/21 05:40:54;;;;;;;3.33;2.10;;;;;;;1.77;100.00;98221.63;5047259;28;20231;-60
2023/04/21 05:43:22;;;;;;;2.47;1.90;;;;;;;1.88;100.00;98217.47;5044943;28;20317;-60
2023/04/21 05:45:49;;;;;;;3.93;2.20;;;;;;;1.92;100.00;98218.91;5047586;28;20231;-60
2023/04/21 05:48:15;;;;;;;3.60;2.60;;;;;;;1.92;100.00;98222.34;5044363;28;20239;-60
2023/04/21 05:50:42;;;;;;;3.33;2.53;;;;;;;1.95;100.00;98223.06;5046026;28;20238;-60
2023/04/21 05:53:09;;;;;;;3.73;2.73;;;;;;;2.01;100.00;98222.63;5043978;28;20226;-60
2023/04/21 05:55:37;;;;;;;4.27;3.30;;;;;;;2.09;100.00;98230.66;5046979;28;20264;-60
2023/04/21 05:58:04;;;;;;;12.68;6.85;;;;;;;2.19;100.00;98226.47;5042320;28;20428;-60
2023/04/21 06:00:38;;;;;;;38.37;18.87;;;;;;;2.28;100.00;98221.59;5046789;28;20713;-60
2023/04/21 06:03:05;;;;;;;47.83;30.80;;;;;;;2.42;100.00;98224.03;5042780;28;20439;-58
2023/04/21 06:05:37;;;;;;;86.60;49.10;;;;;;;2.45;100.00;98223.81;5046553;28;20238;-59
2023/04/21 06:08:04;;;;;;;62.63;36.53;;;;;;;2.56;100.00;98225.63;5042278;28;20727;-59
2023/04/21 06:10:37;;;;;;;18.73;10.90;;;;;;;2.62;100.00;98229.53;5045708;28;20324;-59
2023/04/21 06:13:03;;;;;;;8.37;5.67;;;;;;;2.71;100.00;98223.69;5042871;28;20233;-59
2023/04/21 06:15:56;;;;;;;3.33;2.43;;;;;;;2.87;100.00;98230.31;5043138;28;20708;-58
2023/04/21 06:18:23;;;;;;;5.40;2.30;;;;;;;2.96;100.00;98229.66;5046861;28;20245;-59
2023/04/21 06:20:50;;;;;;;3.30;2.20;;;;;;;3.04;100.00;98223.94;5046892;28;20471;-58
2023/04/21 06:23:17;;;;;;;4.63;3.50;;;;;;;3.13;100.00;98223.25;5043029;28;20254;-58
2023/04/21 06:25:44;;;;;;;3.10;2.80;;;;;;;3.26;100.00;98225.72;5045461;28;20725;-59
2023/04/21 06:28:12;;;;;;;5.80;3.10;;;;;;;3.37;100.00;98227.53;5043638;28;20238;-58
2023/04/21 06:30:39;;;;;;;4.47;2.50;;;;;;;3.49;100.00;98230.94;5046110;28;20236;-58
2023/04/21 06:33:07;;;;;;;3.30;2.50;;;;;;;3.56;100.00;98228.72;5043513;28;20230;-59
2023/04/21 06:35:37;;;;;;;3.57;2.87;;;;;;;3.65;100.00;98228.84;5046352;28;20223;-58
2023/04/21 06:38:03;;;;;;;5.73;2.80;;;;;;;3.78;100.00;98230.50;5043707;28;20235;-58
2023/04/21 06:40:55;;;;;;;5.60;4.67;;;;;;;4.06;100.00;98236.13;5042497;28;20711;-59
2023/04/21 06:43:22;;;;;;;5.43;4.30;;;;;;;4.23;100.00;98234.78;5044944;28;20300;-59
2023/04/21 06:45:48;;;;;;;7.53;5.47;;;;;;;4.42;100.00;98234.16;5046003;28;20226;-59
2023/04/21 06:48:16;;;;;;;6.97;5.20;;;;;;;4.62;100.00;98234.34;5043276;28;20281;-59
2023/04/21 06:50:45;;;;;;;15.90;9.23;;;;;;;4.65;99.81;98234.09;5044852;28;20230;-58
2023/04/21 06:53:11;;;;;;;15.23;9.07;;;;;;;4.68;98.27;98221.75;5043174;28;20219;-59
2023/04/21 06:55:38;;;;;;;16.63;9.10;;;;;;;4.71;96.85;98231.03;5046073;28;20240;-59
2023/04/21 06:58:05;;;;;;;17.57;9.83;;;;;;;4.80;97.38;98226.88;5042553;28;20231;-59
2023/04/21 07:00:37;;;;;;;12.17;9.03;;;;;;;4.93;96.49;98224.13;5045266;28;20236;-59
2023/04/21 07:03:04;;;;;;;18.37;9.37;;;;;;;4.99;95.64;98226.22;5041313;28;20227;-60
2023/04/21 07:05:38;;;;;;;15.63;9.83;;;;;;;5.10;96.07;98222.72;5045413;28;20262;-60
2023/04/21 07:08:05;;;;;;;14.07;9.57;;;;;;;5.30;96.03;98219.34;5042523;28;20227;-59
2023/04/21 07:10:37;;;;;;;13.80;9.03;;;;;;;5.52;94.65;98211.53;5045574;28;20281;-59
2023/04/21 07:13:03;;;;;;;14.73;9.53;;;;;;;5.90;93.19;98218.63;5042007;28;20235;-59
2023/04/21 07:15:55;;;;;;;18.03;11.40;;;;;;;6.23;91.52;98213.34;5042985;28;20230;-59
2023/04/21 07:18:21;;;;;;;13.93;9.40;;;;;;;6.65;89.24;98210.50;5045606;28;20230;-59
2023/04/21 07:20:49;;;;;;;12.90;8.93;;;;;;;7.11;87.07;98214.28;5045571;28;20235;-59
2023/04/21 07:23:16;;;;;;;12.87;8.60;;;;;;;7.42;84.79;98214.91;5042112;28;20244;-59
2023/04/21 07:25:42;;;;;;;13.93;7.47;;;;;;;7.63;82.28;98213.91;5044821;28;20224;-59
2023/04/21 07:28:09;;;;;;;13.43;7.07;;;;;;;7.67;78.97;98210.06;5041231;28;20286;-58
2023/04/21 07:30:37;;;;;;;14.23;8.70;;;;;;;7.54;79.01;98216.38;5044716;28;20230;-59
2023/04/21 07:33:03;;;;;;;11.00;6.47;;;;;;;7.18;79.22;98218.81;5042138;28;20250;-59
2023/04/21 07:35:37;;;;;;;13.93;8.40;;;;;;;7.17;81.33;98224.13;5045086;28;20602;-60
2023/04/21 07:38:05;;;;;;;13.70;9.00;;;;;;;7.14;81.18;98214.84;5042401;28;20677;-60
2023/04/21 07:40:37;;;;;;;15.77;10.47;;;;;;;6.96;83.24;98226.88;5044987;28;20255;-59
2023/04/21 07:43:03;;;;;;;14.97;9.90;;;;;;;6.90;83.02;98221.28;5042031;28;20223;-59
2023/04/21 07:45:55;;;;;;;17.33;11.40;;;;;;;6.98;85.03;98217.19;5042142;28;20365;-59
2023/04/21 07:48:21;;;;;;;18.63;11.17;;;;;;;6.92;85.11;98214.19;5045163;28;20230;-60
2023/04/21 07:50:49;;;;;;;15.13;8.80;;;;;;;6.91;84.43;98220.34;5044934;28;21223;-59
2023/04/21 07:53:17;;;;;;;9.37;6.23;;;;;;;6.79;82.94;98206.69;5041198;28;20258;-59
2023/04/21 07:55:43;;;;;;;12.27;8.00;;;;;;;6.82;82.77;98210.78;5044115;28;20226;-60
2023/04/21 07:58:10;;;;;;;13.40;9.43;;;;;;;6.87;84.68;98213.78;5041965;28;20638;-60
2023/04/21 08:00:37;;;;;;;13.60;9.43;;;;;;;6.86;86.14;98214.72;5044911;28;20316;-59
2023/04/21 08:03:04;;;;;;;14.80;9.13;;;;;;;6.89;87.47;98213.66;5041684;28;20885;-58
2023/04/21 08:05:37;;;;;;;12.53;8.67;;;;;;;6.89;88.10;98208.47;5044601;28;20637;-59
2023/04/21 08:08:04;;;;;;;13.57;8.37;;;;;;;6.93;87.56;98208.03;5041869;28;20258;-59
2023/04/21 08:10:38;;;;;;;10.27;7.67;;;;;;;7.05;87.68;98219.09;5044854;28;20231;-60
2023/04/21 08:13:05;;;;;;;10.90;8.43;;;;;;;7.00;86.56;98213.47;5040806;28;20215;-60
2023/04/21 08:15:37;;;;;;;14.47;9.87;;;;;;;6.87;87.47;98212.97;5044909;28;20324;-59
2023/04/21 08:18:04;;;;;;;12.57;8.50;;;;;;;6.78;89.04;98209.41;5041415;28;20227;-59
2023/04/21 08:20:37;;;;;;;15.20;10.33;;;;;;;6.84;90.94;98211.47;5044699;28;20239;-59
2023/04/21 08:23:04;;;;;;;19.37;10.37;;;;;;;6.89;92.24;98208.47;5041506;28;20238;-59
2023/04/21 08:25:38;;;;;;;16.20;11.23;;;;;;;6.89;93.42;98204.09;5044316;28;20235;-59
2023/04/21 08:28:05;;;;;;;16.07;11.17;;;;;;;7.11;92.33;98198.72;5041200;28;20239;-59
2023/04/21 08:30:37;;;;;;;16.97;11.83;;;;;;;7.08;92.13;98186.84;5044215;28;20824;-58
2023/04/21 08:33:03;;;;;;;18.77;10.93;;;;;;;7.17;91.39;98182.59;5040903;28;20238;-58
2023/04/21 08:35:55;;;;;;;16.30;10.30;;;;;;;7.24;90.75;98173.28;5041036;28;20273;-58
2023/04/21 08:38:21;;;;;;;15.13;10.87;;;;;;;7.15;89.59;98164.56;5043711;28;20293;-58
2023/04/21 08:40:49;;;;;;;13.33;9.53;;;;;;;7.21;89.80;98156.22;5047543;28;20272;-59
2023/04/21 08:43:16;;;;;;;13.90;9.83;;;;;;;7.37;90.12;98152.22;5045014;28;20550;-59
2023/04/21 08:45:43;;;;;;;15.00;10.70;;;;;;;7.49;90.45;98145.88;5047450;28;20227;-59
2023/04/21 08:48:15;;;;;;;16.40;11.00;;;;;;;7.65;89.37;98144.44;5045169;28;20230;-59
2023/04/21 08:50:44;;;;;;;13.87;10.30;;;;;;;7.67;89.27;98140.75;5047821;28;20721;-60
2023/04/21 08:53:11;;;;;;;14.10;10.37;;;;;;;7.88;89.10;98149.25;5044158;28;20242;-59
2023/04/21 08:55:38;;;;;;;19.57;13.37;;;;;;;7.90;89.55;98145.56;5048345;28;20292;-59
2023/04/21 08:58:08;;;;;;;19.87;13.17;;;;;;;8.02;89.27;98158.31;5044079;28;20254;-60
2023/04/21 09:00:37;;;;;;;23.07;15.80;;;;;;;8.05;89.95;98151.06;5047932;28;20311;-60
2023/04/21 09:03:06;;;;;;;21.90;15.07;;;;;;;8.09;92.81;98154.19;5044776;28;20235;-60
2023/04/21 09:05:37;;;;;;;23.73;15.03;;;;;;;8.21;90.73;98160.81;5048510;28;20255;-60
2023/04/21 09:08:12;;;;;;;21.80;14.17;;;;;;;8.12;90.43;98157.31;5045070;28;20321;-59
2023/04/21 09:10:45;;;;;;;23.37;15.07;;;;;;;8.22;89.68;98153.84;5047219;28;20231;-57
2023/04/21 09:13:13;;;;;;;21.13;14.07;;;;;;;8.22;90.10;98157.25;5044678;28;20230;-57
2023/04/21 09:15:40;;;;;;;22.93;14.60;;;;;;;8.17;89.07;98148.25;5047867;28;20239;-59
2023/04/21 09:18:12;;;;;;;21.47;14.77;;;;;;;8.26;91.78;98140.38;5050217;28;20321;-60
2023/04/21 09:20:39;;;;;;;21.03;15.50;;;;;;;8.39;90.44;98141.78;5047752;28;20231;-60
2023/04/21 09:23:06;;;;;;;22.37;14.77;;;;;;;8.44;91.03;98136.16;5043936;28;20233;-60
2023/04/21 09:25:40;;;;;;;21.83;14.87;;;;;;;8.55;89.62;98133.34;5046779;28;20323;-60
2023/04/21 09:28:07;;;;;;;20.70;14.33;;;;;;;8.54;90.81;98136.91;5044190;28;20298;-60
2023/04/21 09:30:42;;;;;;;23.83;15.20;;;;;;;8.72;87.91;98134.31;5047681;28;20318;-60
2023/04/21 09:33:16;;;;;;;22.17;15.93;;;;;;;8.64;87.94;98135.03;5044000;28;20560;-60
2023/04/21 09:35:43;;;;;;;21.17;14.67;;;;;;;8.73;90.14;98129.91;5046887;28;20232;-60
2023/04/21 09:38:12;;;;;;;21.67;14.63;;;;;;;8.88;89.43;98138.00;5044430;28;20227;-59
2023/04/21 09:40:39;;;;;;;24.20;15.00;;;;;;;8.96;90.28;98131.06;5047210;28;20227;-59
2023/04/21 09:43:06;;;;;;;22.63;13.60;;;;;;;9.10;88.11;98139.28;5058723;28;20276;-59
2023/04/21 09:45:38;;;;;;;21.40;13.70;;;;;;;9.27;88.76;98122.78;5047380;28;20234;-59
2023/04/21 09:48:10;;;;;;;19.73;13.07;;;;;;;9.43;88.94;98129.03;5043326;28;20667;-60
2023/04/21 09:50:38;;;;;;;17.93;12.57;;;;;;;9.51;88.18;98112.63;5045836;28;20315;-60
2023/04/21 09:53:07;;;;;;;16.63;12.57;;;;;;;9.73;87.84;98113.84;5041395;28;20240;-60
2023/04/21 09:55:37;;;;;;;19.97;13.17;;;;;;;9.86;86.53;98114.19;5043482;28;20222;-60
2023/04/21 09:58:08;;;;;;;17.47;12.50;;;;;;;9.92;86.35;98106.72;5031588;28;20997;-60
2023/04/21 10:00:38;;;;;;;19.07;12.87;;;;;;;10.10;87.53;98103.97;5042607;28;20221;-60
2023/04/21 10:03:10;;;;;;;20.37;13.00;;;;;;;10.30;87.87;98094.88;5042582;28;20722;-61
2023/04/21 10:05:38;;;;;;;16.67;11.73;;;;;;;10.39;86.42;98106.19;5045659;28;20240;-60
2023/04/21 10:08:06;;;;;;;16.90;12.63;;;;;;;10.56;87.53;98098.34;5042451;28;20240;-58
2023/04/21 10:10:37;;;;;;;14.83;11.13;;;;;;;10.74;86.63;98101.59;5046091;28;20287;-57
2023/04/21 10:13:04;;;;;;;12.57;9.10;;;;;;;10.97;85.53;98093.06;5047522;28;20701;-57
2023/04/21 10:15:39;;;;;;;13.23;9.87;;;;;;;11.15;85.77;98092.84;5046616;28;20249;-58
2023/04/21 10:18:16;;;;;;;12.77;9.80;;;;;;;11.38;84.58;98092.13;5042206;28;20224;-59
2023/04/21 10:20:56;;;;;;;11.63;8.20;;;;;;;11.64;85.28;98098.88;5046108;28;20225;-58
2023/04/21 10:23:27;;;;;;;11.53;9.50;;;;;;;11.79;83.41;98091.94;5029795;28;20240;-60
2023/04/21 10:25:59;;;;;;;12.07;9.23;;;;;;;11.82;83.24;98083.78;5029912;28;20311;-60
2023/04/21 10:28:39;;;;;;;10.63;8.20;;;;;;;11.94;82.53;98081.56;5046073;28;20566;-60
2023/04/21 10:31:25;;;;;;;9.47;6.90;;;;;;;12.13;80.55;98076.91;5028270;28;20226;-60
2023/04/21 10:34:15;;;;;;;10.07;6.60;;;;;;;12.31;80.33;98065.31;5046162;28;20245;-60
2023/04/21 10:37:19;;;;;;;10.73;7.07;;;;;;;12.46;81.81;98074.03;5043102;28;20236;-58
2023/04/21 10:39:52;;;;;;;10.83;7.57;;;;;;;12.67;81.77;98065.50;5042812;28;20593;-59
2023/04/21 10:42:21;;;;;;;7.80;5.30;;;;;;;12.69;78.84;98062.72;5020988;28;20235;-58
2023/04/21 10:44:53;;;;;;;3.50;2.57;;;;;;;12.85;75.64;98069.59;5020864;28;20234;-58
2023/04/21 10:47:26;;;;;;;4.13;2.60;;;;;;;13.04;76.33;98065.63;5039361;28;20689;-58
2023/04/21 10:49:56;;;;;;;3.07;2.77;;;;;;;13.24;73.85;98054.59;5021133;28;20674;-59
2023/04/21 10:52:31;;;;;;;4.73;3.50;;;;;;;13.32;75.23;98062.34;5025335;28;20238;-59
2023/04/21 10:55:11;;;;;;;5.53;2.50;;;;;;;13.39;73.28;98059.81;5021599;28;20322;-60
2023/04/21 10:57:40;;;;;;;2.43;2.23;;;;;;;13.42;73.25;98056.84;5031208;28;20260;-59
2023/04/21 11:00:08;;;;;;;3.60;2.07;;;;;;;13.47;73.15;98056.31;5016157;28;20224;-60
2023/04/21 11:02:35;;;;;;;3.73;1.93;;;;;;;13.60;72.04;98058.28;5044699;28;20690;-60
2023/04/21 11:05:05;;;;;;;2.33;2.03;;;;;;;13.81;73.08;98052.22;5041708;28;20280;-59
2023/04/21 11:07:31;;;;;;;3.90;2.60;;;;;;;13.95;70.77;98061.06;5045526;28;20230;-60
2023/04/21 11:09:59;;;;;;;5.13;2.63;;;;;;;14.07;69.54;98056.13;5040873;28;20233;-60
2023/04/21 11:12:28;;;;;;;7.27;2.60;;;;;;;14.27;68.64;98053.72;5026910;28;20243;-60
2023/04/21 11:14:56;;;;;;;4.07;3.13;;;;;;;14.42;69.88;98048.38;5040883;28;20662;-60
2023/04/21 11:17:23;;;;;;;3.20;2.90;;;;;;;14.50;67.87;98050.84;5044366;28;20222;-60
2023/04/21 11:19:51;;;;;;;4.20;2.77;;;;;;;14.59;67.57;98048.88;5044276;28;20326;-60
2023/04/21 11:22:21;;;;;;;3.17;2.30;;;;;;;14.76;66.51;98047.63;5040911;28;20708;-60
2023/04/21 11:24:49;;;;;;;4.83;2.30;;;;;;;14.88;66.67;98039.22;5043431;28;20438;-60
2023/04/21 11:27:16;;;;;;;4.73;2.40;;;;;;;15.05;65.55;98047.59;5040730;28;20236;-60
2023/04/21 11:29:45;;;;;;;4.50;2.57;;;;;;;15.14;66.12;98038.53;5044022;28;20240;-61
2023/04/21 11:32:12;;;;;;;2.93;2.40;;;;;;;15.28;65.14;98034.16;5040167;28;20328;-61
2023/04/21 11:34:40;;;;;;;2.57;2.00;;;;;;;15.32;63.18;98030.16;5043456;28;20237;-59
2023/04/21 11:37:07;;;;;;;4.20;2.17;;;;;;;15.42;62.26;98029.75;5040669;28;20239;-61
2023/04/21 11:39:35;;;;;;;3.70;1.80;;;;;;;15.44;63.11;98030.38;5044067;28;20231;-59
2023/04/21 11:42:02;;;;;;;5.47;2.77;;;;;;;15.54;63.03;98019.47;5040794;28;20290;-58
2023/04/21 11:44:36;;;;;;;3.43;2.57;;;;;;;15.56;63.99;98014.81;5043730;28;20232;-60
2023/04/21 11:47:13;;;;;;;5.07;3.03;;;;;;;15.78;64.17;98014.69;5037931;28;20814;-58
2023/04/21 11:49:44;;;;;;;6.63;2.07;;;;;;;15.93;62.85;98015.34;5042777;28;20319;-55
2023/04/21 11:52:11;;;;;;;3.63;2.03;;;;;;;16.17;62.53;98017.59;5039934;28;20324;-58